Time;durP1;ratioP1;P1;durP2;ratioP2;P2;SDS_P1;SDS_P2;PMS_P1;PMS_P2;Temp;Humidity;BMP_temperature;BMP_pressure;BME280_temperature;BME280_humidity;BME280_pressure;Samples;Min_cycle;Max_cycle;Signal;HPM_P1;HPM_P2
2023/02/03 00:00:21;;;;;;;6.13;2.60;;;1.90;99.90;;;;;;5069893;28;20334;-73
2023/02/03 00:02:47;;;;;;;;;;;1.90;99.90;;;;;;5069904;28;20060;-75
2023/02/03 00:05:12;;;;;;;6.28;2.38;;;1.90;99.90;;;;;;5069600;28;19947;-75
2023/02/03 00:07:38;;;;;;;;;;;1.90;99.90;;;;;;5069992;28;20060;-75
2023/02/03 00:10:04;;;;;;;9.63;3.78;;;1.80;99.90;;;;;;5069595;28;19930;-73
2023/02/03 00:12:30;;;;;;;8.00;2.83;;;1.70;99.90;;;;;;5069684;28;20033;-75
2023/02/03 00:14:56;;;;;;;;;;;1.50;99.90;;;;;;5068643;28;20024;-76
2023/02/03 00:17:21;;;;;;;8.63;2.63;;;1.40;99.90;;;;;;5069461;28;20277;-74
2023/02/03 00:19:48;;;;;;;;;;;1.20;99.90;;;;;;5070188;28;20032;-75
2023/02/03 00:22:14;;;;;;;5.87;1.87;;;1.20;99.90;;;;;;5069523;28;19927;-74
2023/02/03 00:24:39;;;;;;;;;;;1.10;99.90;;;;;;5068628;28;20857;-75
2023/02/03 00:27:05;;;;;;;11.00;3.28;;;1.10;99.90;;;;;;5068348;28;19931;-75
2023/02/03 00:29:30;;;;;;;;;;;1.00;99.90;;;;;;5068525;28;20028;-75
2023/02/03 00:31:57;;;;;;;6.45;2.70;;;0.90;99.90;;;;;;5069484;28;20399;-75
2023/02/03 00:34:28;;;;;;;9.35;3.72;;;0.80;99.90;;;;;;5069651;28;20045;-74
2023/02/03 00:36:54;;;;;;;8.75;3.72;;;0.80;99.90;;;;;;5068117;28;20036;-77
2023/02/03 00:39:19;;;;;;;;;;;0.70;99.90;;;;;;5069780;28;20103;-75
2023/02/03 00:41:45;;;;;;;9.95;3.78;;;0.70;99.90;;;;;;5069351;28;19951;-73
2023/02/03 00:44:10;;;;;;;;;;;0.80;99.90;;;;;;5069317;28;20120;-76
2023/02/03 00:46:36;;;;;;;21.50;6.00;;;0.70;99.90;;;;;;5068029;28;19923;-75
2023/02/03 00:49:03;;;;;;;27.40;10.57;;;0.70;99.90;;;;;;5068093;28;20021;-75
2023/02/03 00:51:29;;;;;;;16.42;5.95;;;0.60;99.90;;;;;;5068942;28;20428;-75
2023/02/03 00:53:54;;;;;;;;;;;0.50;99.90;;;;;;5068324;28;20488;-77
2023/02/03 00:56:20;;;;;;;23.75;9.13;;;0.50;99.90;;;;;;5067805;28;19959;-75
2023/02/03 00:58:45;;;;;;;;;;;0.50;99.90;;;;;;5069633;28;20037;-76
2023/02/03 01:01:11;;;;;;;13.13;4.53;;;0.50;99.90;;;;;;5069293;28;20227;-74
2023/02/03 01:03:37;;;;;;;;;;;0.50;99.90;;;;;;5068228;28;20071;-74
2023/02/03 01:06:17;;;;;;;7.60;2.78;;;0.60;99.90;;;;;;5072309;28;19915;-76
2023/02/03 01:08:44;;;;;;;31.05;9.75;;;0.60;99.90;;;;;;5071373;28;20032;-76
2023/02/03 01:11:12;;;;;;;40.35;12.95;;;0.60;99.90;;;;;;5072773;28;20033;-75
2023/02/03 01:13:38;;;;;;;36.55;12.05;;;0.70;99.90;;;;;;5072595;28;20501;-76
2023/02/03 01:16:08;;;;;;;;;;;0.70;99.90;;;;;;5072033;28;20451;-75
2023/02/03 01:18:33;;;;;;;21.45;7.30;;;0.80;99.90;;;;;;5071559;28;19989;-76
2023/02/03 01:21:03;;;;;;;;;;;0.80;99.90;;;;;;5073020;28;20479;-75
2023/02/03 01:23:29;;;;;;;11.48;2.42;;;0.90;99.90;;;;;;5072464;28;19912;-74
2023/02/03 01:25:54;;;;;;;;;;;0.90;99.90;;;;;;5071795;28;20037;-74
2023/02/03 01:28:20;;;;;;;10.90;2.38;;;1.00;99.90;;;;;;5072619;28;19904;-75
2023/02/03 01:30:45;;;;;;;;;;;1.00;99.90;;;;;;5071702;28;20480;-76
2023/02/03 01:33:11;;;;;;;4.57;1.33;;;1.00;99.90;;;;;;5070897;28;19912;-76
2023/02/03 01:35:37;;;;;;;;;;;1.00;99.90;;;;;;5072525;28;20571;-76
2023/02/03 01:38:02;;;;;;;8.48;1.92;;;1.10;99.90;;;;;;5072208;28;20003;-76
2023/02/03 01:40:28;;;;;;;;;;;1.20;99.90;;;;;;5071485;28;20024;-76
2023/02/03 01:42:54;;;;;;;9.02;2.45;;;1.20;99.90;;;;;;5071845;28;19911;-76
2023/02/03 01:45:19;;;;;;;;;;;1.20;99.90;;;;;;5072550;28;20024;-75
2023/02/03 01:47:53;;;;;;;12.82;4.13;;;1.20;99.90;;;;;;5070789;28;19911;-75
2023/02/03 01:50:24;;;;;;;9.23;2.22;;;1.20;99.90;;;;;;5071921;28;20105;-75
2023/02/03 01:52:55;;;;;;;7.85;3.15;;;1.20;99.90;;;;;;5070373;28;20039;-75
2023/02/03 01:55:27;;;;;;;10.70;3.67;;;1.10;99.90;;;;;;5071969;28;20035;-75
2023/02/03 01:58:05;;;;;;;9.70;3.45;;;1.10;99.90;;;;;;5070704;28;20039;-75
2023/02/03 02:00:30;;;;;;;6.32;1.85;;;1.00;99.90;;;;;;5071879;28;20372;-75
2023/02/03 02:02:57;;;;;;;;;;;1.00;99.90;;;;;;5072212;28;20067;-75
2023/02/03 02:05:31;;;;;;;4.43;1.50;;;1.00;99.90;;;;;;5071939;28;19908;-74
2023/02/03 02:07:59;;;;;;;6.55;1.20;;;1.00;99.90;;;;;;5070470;28;20039;-74
2023/02/03 02:10:25;;;;;;;5.78;2.25;;;1.10;99.90;;;;;;5071829;28;20540;-75
2023/02/03 02:12:53;;;;;;;;;;;1.20;99.90;;;;;;5070764;28;20038;-75
2023/02/03 02:15:23;;;;;;;7.93;1.98;;;1.20;99.90;;;;;;5071570;28;19904;-76
2023/02/03 02:18:20;;;;;;;6.63;2.25;;;1.20;99.90;;;;;;5071301;28;20023;-76
2023/02/03 02:21:14;;;;;;;6.88;1.77;;;1.20;99.90;;;;;;5070162;28;20034;-75
2023/02/03 02:24:13;;;;;;;3.28;1.15;;;1.10;99.90;;;;;;5069765;28;20106;-77
2023/02/03 02:26:48;;;;;;;3.55;1.15;;;1.10;99.90;;;;;;5071355;28;20028;-76
2023/02/03 02:29:48;;;;;;;3.95;1.00;;;1.10;99.90;;;;;;5071416;28;20047;-75
2023/02/03 02:32:19;;;;;;;2.90;0.90;;;1.10;99.90;;;;;;5069811;28;20121;-75
2023/02/03 02:34:45;;;;;;;2.63;0.77;;;1.10;99.90;;;;;;5071097;28;20025;-75
2023/02/03 02:37:19;;;;;;;;;;;1.10;99.90;;;;;;5070597;28;20040;-75
2023/02/03 02:39:54;;;;;;;2.38;0.55;;;1.10;99.90;;;;;;5071246;28;19916;-76
2023/02/03 02:42:31;;;;;;;2.13;0.90;;;1.10;99.90;;;;;;5071071;28;20051;-75
2023/02/03 02:45:21;;;;;;;2.45;0.60;;;1.10;99.90;;;;;;5070845;28;20162;-75
2023/02/03 02:47:48;;;;;;;2.75;0.55;;;1.20;99.90;;;;;;5069592;28;20028;-75
2023/02/03 02:50:23;;;;;;;2.90;0.70;;;1.20;99.90;;;;;;5070794;28;20480;-74
2023/02/03 02:52:50;;;;;;;4.75;0.73;;;1.10;99.90;;;;;;5069530;28;20098;-75
2023/02/03 02:55:23;;;;;;;2.45;0.70;;;1.10;99.90;;;;;;5070927;28;20031;-74
2023/02/03 02:57:52;;;;;;;4.90;1.15;;;1.10;99.90;;;;;;5069684;28;20033;-74
2023/02/03 03:00:18;;;;;;;1.52;0.50;;;1.10;99.90;;;;;;5070710;28;20021;-73
2023/02/03 03:02:43;;;;;;;2.53;0.60;;;1.10;99.90;;;;;;5070604;28;20056;-75
2023/02/03 03:05:10;;;;;;;;;;;1.10;99.90;;;;;;5070762;28;20451;-75
2023/02/03 03:07:50;;;;;;;2.58;0.52;;;1.10;99.90;;;;;;5070593;28;19914;-74
2023/02/03 03:10:23;;;;;;;2.70;0.68;;;1.10;99.90;;;;;;5068920;28;20510;-75
2023/02/03 03:12:53;;;;;;;2.63;0.50;;;1.10;99.90;;;;;;5068996;28;20040;-74
2023/02/03 03:15:23;;;;;;;2.58;0.60;;;1.00;99.90;;;;;;5070330;28;20402;-75
2023/02/03 03:17:58;;;;;;;3.88;1.00;;;1.00;99.90;;;;;;5069102;28;20031;-75
2023/02/03 03:20:26;;;;;;;3.58;0.82;;;1.10;99.90;;;;;;5070372;28;20731;-75
2023/02/03 03:23:02;;;;;;;3.58;0.77;;;1.00;99.90;;;;;;5069931;28;20561;-76
2023/02/03 03:25:36;;;;;;;3.60;1.15;;;1.10;99.90;;;;;;5070079;28;20032;-76
2023/02/03 03:28:07;;;;;;;3.28;0.77;;;1.10;99.90;;;;;;5067623;28;20029;-76
2023/02/03 03:30:35;;;;;;;3.58;0.73;;;1.10;99.90;;;;;;5068568;28;20050;-76
2023/02/03 03:33:02;;;;;;;3.33;0.77;;;1.00;99.90;;;;;;5068660;28;20044;-76
2023/02/03 03:35:51;;;;;;;3.05;0.60;;;1.10;99.90;;;;;;5070108;28;20031;-75
2023/02/03 03:38:37;;;;;;;1.83;0.60;;;1.10;99.90;;;;;;5068071;28;20040;-75
2023/02/03 03:41:15;;;;;;;2.03;0.40;;;1.10;99.90;;;;;;5068331;28;20068;-74
2023/02/03 03:43:43;;;;;;;1.63;0.43;;;1.10;99.90;;;;;;5069719;28;20033;-75
2023/02/03 03:46:14;;;;;;;3.20;0.90;;;1.00;99.90;;;;;;5070022;28;20581;-75
2023/02/03 03:48:53;;;;;;;4.13;1.38;;;1.00;99.90;;;;;;5068598;28;20032;-74
2023/02/03 03:51:27;;;;;;;3.10;0.90;;;1.00;99.90;;;;;;5069319;28;20472;-75
2023/02/03 03:53:56;;;;;;;6.07;1.08;;;0.90;99.90;;;;;;5069568;28;20056;-74
2023/02/03 03:56:28;;;;;;;3.15;0.70;;;0.90;99.90;;;;;;5069979;28;20031;-75
2023/02/03 03:58:56;;;;;;;3.80;1.10;;;1.00;99.30;;;;;;5068120;28;20028;-76
2023/02/03 04:01:22;;;;;;;1.45;0.50;;;1.10;99.40;;;;;;5068385;28;20028;-75
2023/02/03 04:03:54;;;;;;;1.35;0.43;;;1.10;98.90;;;;;;5069714;28;20077;-75
2023/02/03 04:06:20;;;;;;;1.55;0.63;;;1.10;99.20;;;;;;5069752;28;20032;-74
2023/02/03 04:08:46;;;;;;;;;;;1.20;99.30;;;;;;5070109;28;20032;-75
2023/02/03 04:11:59;;;;;;;3.75;0.75;;;1.20;99.50;;;;;;5068271;28;19960;-75
2023/02/03 04:13:57;;;;;;;3.10;0.80;;;1.10;99.90;;;;;;5069439;28;20073;-75
2023/02/03 04:16:22;;;;;;;;;;;1.10;99.90;;;;;;5069876;28;20036;-76
2023/02/03 04:18:48;;;;;;;2.30;0.70;;;1.10;99.90;;;;;;5068381;28;19955;-75
2023/02/03 04:21:13;;;;;;;;;;;1.10;99.90;;;;;;5068978;28;20135;-73
2023/02/03 04:23:39;;;;;;;2.95;0.70;;;1.10;99.90;;;;;;5069028;28;20038;-76
2023/02/03 04:26:05;;;;;;;;;;;1.00;99.90;;;;;;5068093;28;20109;-75
2023/02/03 04:28:30;;;;;;;3.83;1.17;;;0.90;99.90;;;;;;5068294;28;19911;-75
2023/02/03 04:30:59;;;;;;;;;;;0.90;99.90;;;;;;5070136;28;20036;-74
2023/02/03 04:33:24;;;;;;;3.83;0.80;;;0.80;99.90;;;;;;5068897;28;19950;-77
2023/02/03 04:35:50;;;;;;;;;;;0.80;99.90;;;;;;5069984;28;20488;-75
2023/02/03 04:38:15;;;;;;;3.90;0.82;;;0.80;99.90;;;;;;5069167;28;19904;-76
2023/02/03 04:40:44;;;;;;;;;;;0.80;99.90;;;;;;5072517;28;20131;-76
2023/02/03 04:43:10;;;;;;;3.42;0.88;;;0.80;99.90;;;;;;5073333;28;20287;-76
2023/02/03 04:45:36;;;;;;;5.00;1.58;;;0.90;99.90;;;;;;5073173;28;20107;-76
2023/02/03 04:48:05;;;;;;;4.50;1.25;;;0.80;99.90;;;;;;5071963;28;20020;-75
2023/02/03 04:50:31;;;;;;;196.75;74.03;;;0.80;99.90;;;;;;5071638;28;20421;-77
2023/02/03 04:52:59;;;;;;;;;;;0.70;99.90;;;;;;5072183;28;20036;-74
2023/02/03 04:55:25;;;;;;;7.32;2.78;;;0.70;99.90;;;;;;5072901;28;19995;-75
2023/02/03 04:57:58;;;;;;;7.18;3.05;;;0.60;99.90;;;;;;5072980;28;20028;-75
2023/02/03 05:00:25;;;;;;;5.13;1.15;;;0.50;99.90;;;;;;5072895;28;20139;-77
2023/02/03 05:02:50;;;;;;;6.32;2.08;;;0.50;99.90;;;;;;5072693;28;20028;-74
2023/02/03 05:05:16;;;;;;;;;;;0.40;99.90;;;;;;5073090;28;20469;-75
2023/02/03 05:07:42;;;;;;;2.85;1.02;;;0.30;99.90;;;;;;5072893;28;19909;-76
2023/02/03 05:10:08;;;;;;;;;;;0.30;99.90;;;;;;5073088;28;20035;-75
2023/02/03 05:12:33;;;;;;;1.67;0.40;;;0.20;99.90;;;;;;5071440;28;19916;-75
2023/02/03 05:14:59;;;;;;;;;;;0.10;99.90;;;;;;5073020;28;20026;-75
2023/02/03 05:17:25;;;;;;;2.40;0.55;;;0.10;99.90;;;;;;5072575;28;19943;-75
2023/02/03 05:19:50;;;;;;;;;;;0.00;99.90;;;;;;5072824;28;20107;-75
2023/02/03 05:22:16;;;;;;;3.17;0.63;;;0.00;99.90;;;;;;5072302;28;19905;-74
2023/02/03 05:24:41;;;;;;;;;;;0.10;99.90;;;;;;5071222;28;20036;-75
2023/02/03 05:27:07;;;;;;;6.10;0.88;;;0.10;99.90;;;;;;5072313;28;19976;-75
2023/02/03 05:29:33;;;;;;;;;;;0.20;99.90;;;;;;5072778;28;20527;-74
2023/02/03 05:31:58;;;;;;;2.17;0.30;;;0.20;99.90;;;;;;5070751;28;19947;-75
2023/02/03 05:34:24;;;;;;;;;;;0.20;99.90;;;;;;5072410;28;20071;-75
2023/02/03 05:36:49;;;;;;;2.28;0.47;;;0.30;99.90;;;;;;5072102;28;19955;-75
2023/02/03 05:39:15;;;;;;;;;;;0.30;99.90;;;;;;5072260;28;20032;-75
2023/02/03 05:41:52;;;;;;;2.42;0.57;;;0.30;99.90;;;;;;5072111;28;19919;-75
2023/02/03 05:44:20;;;;;;;2.50;0.90;;;0.30;99.90;;;;;;5071977;28;20028;-75
2023/02/03 05:46:45;;;;;;;7.38;2.15;;;0.30;99.90;;;;;;5071988;28;20020;-75
2023/02/03 05:49:11;;;;;;;;;;;0.30;99.90;;;;;;5071490;28;20025;-76
2023/02/03 05:51:38;;;;;;;6.85;1.67;;;0.40;99.90;;;;;;5070776;28;19920;-75
2023/02/03 05:54:04;;;;;;;7.93;3.13;;;0.50;99.90;;;;;;5071783;28;20052;-75
2023/02/03 05:56:29;;;;;;;8.65;3.38;;;0.60;99.90;;;;;;5070663;28;20036;-75
2023/02/03 05:58:55;;;;;;;;;;;0.60;99.90;;;;;;5072365;28;20086;-74
2023/02/03 06:01:21;;;;;;;4.22;1.30;;;0.70;99.90;;;;;;5070567;28;19912;-75
2023/02/03 06:03:46;;;;;;;;;;;0.80;99.90;;;;;;5072392;28;20039;-75
2023/02/03 06:06:13;;;;;;;8.82;3.10;;;0.70;99.90;;;;;;5070509;28;19935;-76
2023/02/03 06:08:38;;;;;;;22.80;8.98;;;0.80;99.90;;;;;;5071683;28;20021;-75
2023/02/03 06:11:04;;;;;;;;;;;0.90;99.90;;;;;;5070730;28;20032;-75
2023/02/03 06:13:30;;;;;;;3.72;1.42;;;0.90;99.90;;;;;;5071553;28;19909;-75
2023/02/03 06:15:55;;;;;;;;;;;1.00;99.90;;;;;;5071799;28;20480;-75
2023/02/03 06:18:21;;;;;;;15.57;5.80;;;1.00;99.90;;;;;;5071573;28;19912;-75
2023/02/03 06:20:47;;;;;;;;;;;1.00;99.90;;;;;;5071838;28;20024;-75
2023/02/03 06:23:12;;;;;;;7.28;1.67;;;1.10;99.90;;;;;;5071304;28;19943;-75
2023/02/03 06:25:38;;;;;;;;;;;1.10;98.20;;;;;;5071827;28;20032;-76
2023/02/03 06:28:04;;;;;;;12.07;4.40;;;1.20;99.30;;;;;;5071354;28;19961;-76
2023/02/03 06:30:29;;;;;;;;;;;1.20;98.20;;;;;;5070535;28;20499;-75
2023/02/03 06:32:55;;;;;;;7.18;2.88;;;1.20;98.80;;;;;;5069903;28;19923;-76
2023/02/03 06:35:21;;;;;;;;;;;1.20;99.40;;;;;;5070047;28;20111;-74
2023/02/03 06:37:46;;;;;;;10.48;4.00;;;1.30;98.50;;;;;;5069834;28;19908;-76
2023/02/03 06:40:12;;;;;;;;;;;1.30;97.60;;;;;;5070311;28;20635;-75
2023/02/03 06:42:38;;;;;;;4.22;1.23;;;1.40;95.30;;;;;;5070885;28;19913;-75
2023/02/03 06:45:04;;;;;;;;;;;1.40;96.20;;;;;;5071374;28;20087;-76
2023/02/03 06:47:29;;;;;;;14.98;5.28;;;1.40;96.10;;;;;;5069515;28;19909;-75
2023/02/03 06:49:55;;;;;;;;;;;1.40;96.60;;;;;;5071277;28;20507;-75
2023/02/03 06:52:21;;;;;;;25.20;10.15;;;1.40;97.20;;;;;;5068959;28;19942;-75
2023/02/03 06:54:46;;;;;;;;;;;1.40;97.20;;;;;;5071069;28;20036;-76
2023/02/03 06:57:12;;;;;;;5.20;1.77;;;1.40;96.00;;;;;;5070659;28;19904;-76
2023/02/03 06:59:37;;;;;;;;;;;1.50;97.80;;;;;;5069669;28;20118;-75
2023/02/03 07:02:03;;;;;;;40.42;17.52;;;1.50;95.90;;;;;;5068938;28;19904;-75
2023/02/03 07:04:31;;;;;;;;;;;1.50;95.60;;;;;;5070982;28;20034;-76
2023/02/03 07:06:57;;;;;;;21.50;9.57;;;1.50;97.60;;;;;;5069484;28;19912;-74
2023/02/03 07:09:23;;;;;;;;;;;1.50;98.30;;;;;;5070804;28;20400;-76
2023/02/03 07:11:48;;;;;;;12.77;4.75;;;1.50;99.90;;;;;;5070464;28;19966;-76
2023/02/03 07:14:14;;;;;;;;;;;1.50;99.90;;;;;;5070737;28;20029;-73
2023/02/03 07:16:40;;;;;;;10.52;3.45;;;1.50;99.90;;;;;;5068674;28;19927;-73
2023/02/03 07:19:05;;;;;;;;;;;1.50;99.90;;;;;;5069467;28;20025;-74
2023/02/03 07:21:31;;;;;;;17.13;6.60;;;1.50;99.90;;;;;;5070219;28;19905;-73
2023/02/03 07:23:57;;;;;;;7.95;3.47;;;1.60;99.90;;;;;;5070202;28;20028;-73
2023/02/03 07:26:25;;;;;;;;;;;1.60;99.90;;;;;;5070534;28;20111;-73
2023/02/03 07:28:51;;;;;;;5.30;1.60;;;1.60;99.90;;;;;;5068827;28;19958;-73
2023/02/03 07:31:17;;;;;;;3.35;1.38;;;1.60;99.90;;;;;;5069906;28;20090;-74
2023/02/03 07:33:43;;;;;;;;;;;1.70;99.90;;;;;;5070536;28;20432;-73
2023/02/03 07:36:09;;;;;;;4.25;1.55;;;1.70;99.90;;;;;;5070104;28;19912;-74
2023/02/03 07:38:36;;;;;;;5.95;3.40;;;1.70;99.90;;;;;;5069027;28;20033;-72
2023/02/03 07:41:03;;;;;;;7.88;5.93;;;1.70;99.90;;;;;;5070000;28;20035;-74
2023/02/03 07:43:29;;;;;;;12.02;5.55;;;1.70;99.90;;;;;;5069723;28;20032;-72
2023/02/03 07:45:55;;;;;;;;;;;1.80;99.90;;;;;;5070224;28;20038;-75
2023/02/03 07:48:20;;;;;;;11.32;7.55;;;1.80;99.90;;;;;;5069673;28;19908;-74
2023/02/03 07:50:46;;;;;;;;;;;1.80;99.90;;;;;;5069853;28;20044;-74
2023/02/03 07:53:12;;;;;;;9.73;8.32;;;1.80;99.90;;;;;;5069780;28;19908;-75
2023/02/03 07:55:38;;;;;;;;;;;1.90;99.90;;;;;;5070204;28;20036;-75
2023/02/03 07:58:04;;;;;;;4.13;1.77;;;1.90;99.90;;;;;;5068527;28;19916;-73
2023/02/03 08:00:30;;;;;;;;;;;1.90;99.90;;;;;;5068761;28;20025;-73
2023/02/03 08:02:55;;;;;;;45.47;19.38;;;1.80;99.90;;;;;;5068337;28;19904;-72
2023/02/03 08:05:21;;;;;;;;;;;1.90;99.90;;;;;;5070017;28;20504;-73
2023/02/03 08:07:47;;;;;;;13.65;3.88;;;1.90;99.90;;;;;;5069415;28;20306;-73
2023/02/03 08:10:14;;;;;;;49.60;27.60;;;2.00;99.90;;;;;;5069377;28;20034;-74
2023/02/03 08:12:41;;;;;;;29.13;14.40;;;2.00;99.90;;;;;;5069563;28;20126;-73
2023/02/03 08:15:08;;;;;;;27.30;12.15;;;2.00;99.90;;;;;;5069250;28;20123;-74
2023/02/03 08:17:34;;;;;;;15.77;6.10;;;2.00;99.90;;;;;;5069495;28;20638;-75
2023/02/03 08:19:59;;;;;;;;;;;2.10;99.90;;;;;;5068904;28;20023;-73
2023/02/03 08:22:25;;;;;;;7.55;2.50;;;2.10;99.90;;;;;;5068474;28;19995;-73
2023/02/03 08:24:51;;;;;;;;;;;2.20;99.90;;;;;;5070020;28;20036;-73
2023/02/03 08:27:20;;;;;;;6.40;1.90;;;2.20;99.90;;;;;;5068467;28;19905;-73
2023/02/03 08:29:46;;;;;;;4.20;1.25;;;2.20;99.90;;;;;;5069691;28;20056;-71
2023/02/03 08:32:13;;;;;;;;;;;2.30;99.90;;;;;;5068462;28;20036;-73
2023/02/03 08:34:39;;;;;;;5.03;1.10;;;2.30;99.90;;;;;;5067973;28;19904;-72
2023/02/03 08:37:04;;;;;;;;;;;2.20;99.90;;;;;;5070033;28;20028;-73
2023/02/03 08:39:32;;;;;;;4.70;0.93;;;2.30;99.90;;;;;;5069404;28;19911;-72
2023/02/03 08:41:58;;;;;;;4.80;1.25;;;2.30;99.90;;;;;;5069438;28;20033;-72
2023/02/03 08:44:23;;;;;;;;;;;2.40;99.90;;;;;;5069952;28;20040;-72
2023/02/03 08:46:53;;;;;;;5.68;2.00;;;2.40;99.90;;;;;;5068045;28;19908;-73
2023/02/03 08:49:19;;;;;;;4.68;1.80;;;2.30;99.90;;;;;;5069428;28;20029;-73
2023/02/03 08:51:45;;;;;;;;;;;2.30;99.90;;;;;;5069543;28;20121;-74
2023/02/03 08:54:10;;;;;;;5.55;2.03;;;2.30;99.90;;;;;;5068962;28;19912;-76
2023/02/03 08:56:36;;;;;;;;;;;2.30;99.90;;;;;;5069696;28;20027;-75
2023/02/03 08:59:02;;;;;;;4.10;1.40;;;2.30;99.90;;;;;;5069229;28;19908;-75
2023/02/03 09:01:27;;;;;;;;;;;2.30;99.90;;;;;;5068549;28;20028;-73
2023/02/03 09:03:53;;;;;;;3.85;0.90;;;2.30;99.90;;;;;;5067821;28;20452;-73
2023/02/03 09:06:19;;;;;;;;;;;2.40;99.90;;;;;;5069594;28;20523;-73
2023/02/03 09:08:45;;;;;;;5.20;1.65;;;2.40;99.90;;;;;;5068099;28;19915;-73
2023/02/03 09:11:13;;;;;;;5.53;1.60;;;2.40;99.90;;;;;;5067945;28;20037;-73
2023/02/03 09:13:42;;;;;;;6.88;1.50;;;2.50;99.90;;;;;;5068758;28;20032;-73
2023/02/03 09:16:08;;;;;;;5.60;1.90;;;2.50;99.90;;;;;;5068914;28;20194;-74
2023/02/03 09:18:34;;;;;;;7.03;2.20;;;2.60;99.90;;;;;;5067679;28;20094;-72
2023/02/03 09:21:04;;;;;;;;;;;2.60;99.90;;;;;;5069376;28;20497;-73
2023/02/03 09:23:29;;;;;;;4.40;1.42;;;2.70;99.90;;;;;;5068809;28;20159;-73
2023/02/03 09:25:55;;;;;;;;;;;2.70;99.90;;;;;;5067917;28;20647;-71
2023/02/03 09:28:21;;;;;;;5.13;1.40;;;2.80;99.90;;;;;;5070942;28;20430;-73
2023/02/03 09:30:46;;;;;;;;;;;2.80;99.90;;;;;;5072562;28;20444;-73
2023/02/03 09:33:12;;;;;;;3.50;1.40;;;2.90;99.90;;;;;;5072496;28;19912;-73
2023/02/03 09:35:38;;;;;;;;;;;3.00;99.90;;;;;;5072842;28;20044;-74
2023/02/03 09:38:03;;;;;;;3.30;1.45;;;3.10;99.90;;;;;;5072436;28;20498;-72
2023/02/03 09:40:30;;;;;;;;;;;3.20;99.90;;;;;;5072844;28;20044;-73
2023/02/03 09:43:53;;;;;;;5.85;1.40;;;3.20;99.90;;;;;;5072084;28;19928;-73
2023/02/03 09:46:22;;;;;;;4.65;1.52;;;3.30;99.90;;;;;;5010042;28;20038;-73
2023/02/03 09:48:57;;;;;;;7.07;1.75;;;3.30;99.90;;;;;;5010049;28;20056;-73
2023/02/03 09:51:28;;;;;;;6.15;1.92;;;3.30;99.90;;;;;;5051501;28;20055;-73
2023/02/03 09:54:06;;;;;;;5.43;1.90;;;3.30;99.90;;;;;;5070883;28;20503;-73
2023/02/03 09:56:35;;;;;;;5.55;1.95;;;3.30;99.90;;;;;;5072200;28;20024;-72
2023/02/03 09:59:01;;;;;;;5.25;1.98;;;3.30;99.90;;;;;;5072055;28;20032;-73
2023/02/03 10:01:44;;;;;;;6.97;2.10;;;3.50;99.90;;;;;;5070659;28;20025;-73
2023/02/03 10:04:38;;;;;;;5.78;1.65;;;3.50;99.90;;;;;;5071922;28;20469;-72
2023/02/03 10:07:14;;;;;;;3.33;1.63;;;3.50;99.90;;;;;;5071958;28;20008;-73
2023/02/03 10:09:53;;;;;;;6.15;1.85;;;3.50;99.90;;;;;;5071775;28;20025;-73
2023/02/03 10:12:58;;;;;;;2.58;1.02;;;3.40;99.70;;;;;;5070330;28;20041;-73
2023/02/03 10:15:48;;;;;;;2.63;0.88;;;3.50;99.30;;;;;;5071627;28;20378;-73
2023/02/03 10:18:32;;;;;;;3.13;0.70;;;3.40;97.20;;;;;;5070331;28;20464;-72
2023/02/03 10:21:02;;;;;;;4.38;1.20;;;3.40;95.70;;;;;;5071489;28;20028;-73
2023/02/03 10:23:38;;;;;;;3.95;1.35;;;3.30;96.50;;;;;;5070209;28;20036;-72
2023/02/03 10:26:11;;;;;;;22.70;8.57;;;3.40;96.80;;;;;;5070153;28;20496;-73
2023/02/03 10:28:50;;;;;;;8.60;3.13;;;3.30;99.70;;;;;;5070480;28;20048;-72
2023/02/03 10:31:21;;;;;;;5.32;2.08;;;3.30;99.90;;;;;;5071312;28;20068;-73
2023/02/03 10:34:00;;;;;;;4.25;1.33;;;3.20;99.90;;;;;;5071488;28;20427;-73
2023/02/03 10:36:38;;;;;;;13.77;2.13;;;3.10;99.90;;;;;;5071331;28;20098;-72
2023/02/03 10:39:25;;;;;;;3.17;1.35;;;2.80;99.90;;;;;;5069321;28;20028;-73
2023/02/03 10:41:52;;;;;;;1.98;0.98;;;2.70;99.90;;;;;;5069916;28;20028;-72
2023/02/03 10:44:18;;;;;;;4.95;1.45;;;2.40;99.90;;;;;;5071236;28;20040;-73
2023/02/03 10:46:44;;;;;;;;;;;2.30;99.90;;;;;;5071558;28;20512;-76
2023/02/03 10:49:12;;;;;;;5.60;1.92;;;2.20;99.90;;;;;;5071161;28;20304;-74
2023/02/03 10:51:47;;;;;;;6.00;2.20;;;2.10;99.90;;;;;;5069501;28;20053;-76
2023/02/03 10:54:28;;;;;;;6.22;2.67;;;1.90;99.90;;;;;;5069561;28;20420;-76
2023/02/03 10:56:57;;;;;;;5.35;2.40;;;1.80;99.90;;;;;;5070804;28;20028;-76
2023/02/03 10:59:32;;;;;;;7.90;2.80;;;1.70;99.90;;;;;;5070871;28;20035;-75
2023/02/03 11:01:58;;;;;;;7.03;3.07;;;1.60;99.90;;;;;;5069408;28;20082;-75
2023/02/03 11:04:31;;;;;;;;;;;1.60;99.90;;;;;;5070034;28;20032;-75
2023/02/03 11:07:00;;;;;;;5.00;2.60;;;1.50;99.90;;;;;;5069268;28;19904;-75
2023/02/03 11:09:41;;;;;;;6.97;2.63;;;1.50;99.90;;;;;;5070626;28;20238;-75
2023/02/03 11:12:13;;;;;;;8.23;2.22;;;1.50;99.90;;;;;;5069015;28;20037;-75
2023/02/03 11:14:47;;;;;;;4.93;2.53;;;1.60;99.90;;;;;;5070353;28;20396;-75
2023/02/03 11:17:18;;;;;;;4.30;2.03;;;1.50;99.90;;;;;;5070478;28;20054;-76
2023/02/03 11:19:47;;;;;;;4.40;2.38;;;1.50;99.90;;;;;;5070311;28;20466;-75
2023/02/03 11:22:29;;;;;;;5.68;2.83;;;1.50;99.90;;;;;;5068890;28;20025;-75
2023/02/03 11:24:56;;;;;;;5.88;3.30;;;1.50;99.90;;;;;;5068782;28;20028;-76
2023/02/03 11:27:23;;;;;;;6.45;3.40;;;1.50;99.90;;;;;;5070048;28;20029;-75
2023/02/03 11:30:05;;;;;;;120.65;53.67;;;1.60;99.90;;;;;;5070282;28;20029;-76
2023/02/03 11:32:41;;;;;;;33.78;14.93;;;1.60;99.90;;;;;;5068596;28;20036;-76
2023/02/03 11:35:13;;;;;;;15.43;7.90;;;1.60;99.90;;;;;;5070110;28;20124;-75
2023/02/03 11:37:44;;;;;;;25.02;12.63;;;1.70;99.90;;;;;;5069929;28;20036;-75
2023/02/03 11:40:10;;;;;;;21.48;7.43;;;1.70;99.90;;;;;;5069897;28;20017;-75
2023/02/03 11:42:41;;;;;;;13.60;6.30;;;1.80;99.90;;;;;;5068477;28;20119;-73
2023/02/03 11:45:14;;;;;;;9.18;5.03;;;1.90;99.90;;;;;;5069818;28;20028;-73
2023/02/03 11:47:49;;;;;;;8.93;4.45;;;1.90;99.90;;;;;;5068594;28;20124;-74
2023/02/03 11:50:40;;;;;;;7.38;3.70;;;2.00;99.90;;;;;;5067717;28;20029;-71
2023/02/03 11:53:12;;;;;;;7.18;4.32;;;2.00;99.90;;;;;;5038210;28;20048;-73
2023/02/03 11:56:09;;;;;;;7.38;4.13;;;2.00;99.90;;;;;;5068595;28;20067;-73
2023/02/03 11:58:52;;;;;;;7.60;4.05;;;2.10;99.90;;;;;;5068577;28;20027;-73
2023/02/03 12:01:39;;;;;;;7.75;4.35;;;2.10;99.90;;;;;;5068394;28;20029;-74
2023/02/03 12:04:23;;;;;;;6.68;3.85;;;2.10;99.90;;;;;;5068590;28;20032;-73
2023/02/03 12:07:16;;;;;;;5.15;2.83;;;2.10;99.90;;;;;;5069708;28;20063;-74
2023/02/03 12:09:53;;;;;;;6.32;3.03;;;2.10;99.90;;;;;;5069688;28;20054;-73
2023/02/03 12:12:38;;;;;;;4.93;3.10;;;2.10;99.90;;;;;;5069657;28;20079;-73
2023/02/03 12:15:49;;;;;;;5.25;3.10;;;2.10;99.90;;;;;;5069930;28;20121;-73
2023/02/03 12:18:33;;;;;;;6.40;3.97;;;2.20;99.90;;;;;;5069870;28;20025;-73
2023/02/03 12:21:08;;;;;;;4.45;2.60;;;2.20;99.90;;;;;;5069722;28;20016;-74
2023/02/03 12:23:55;;;;;;;7.30;4.00;;;2.20;99.90;;;;;;5068356;28;20063;-73
2023/02/03 12:26:25;;;;;;;12.43;5.93;;;2.20;99.90;;;;;;5069550;28;20037;-73
2023/02/03 12:29:17;;;;;;;15.55;7.57;;;2.20;99.90;;;;;;5069583;28;20104;-73
2023/02/03 12:31:51;;;;;;;18.35;9.68;;;2.20;99.90;;;;;;5069251;28;20036;-72
2023/02/03 12:34:36;;;;;;;12.48;6.55;;;2.20;99.90;;;;;;5069537;28;20024;-73
2023/02/03 12:37:53;;;;;;;9.52;4.60;;;2.30;99.90;;;;;;5068103;28;20408;-74
2023/02/03 12:40:46;;;;;;;15.35;5.82;;;2.30;99.90;;;;;;5034453;28;20040;-73
2023/02/03 12:43:36;;;;;;;9.13;4.63;;;2.20;99.90;;;;;;5068079;28;20028;-73
2023/02/03 12:46:20;;;;;;;8.75;5.38;;;2.20;99.90;;;;;;5069281;28;20028;-73
2023/02/03 12:49:10;;;;;;;8.82;5.30;;;2.20;99.90;;;;;;5067994;28;20051;-73
2023/02/03 12:51:48;;;;;;;10.43;6.07;;;2.10;99.90;;;;;;5067914;28;20159;-72
2023/02/03 12:54:34;;;;;;;11.40;6.85;;;2.00;99.90;;;;;;5069274;28;20025;-73
2023/02/03 12:57:12;;;;;;;9.10;5.68;;;1.90;99.90;;;;;;5068124;28;20028;-74
2023/02/03 12:59:40;;;;;;;13.93;8.02;;;1.90;99.90;;;;;;5068087;28;20048;-74
2023/02/03 13:02:23;;;;;;;14.48;8.38;;;2.00;99.90;;;;;;5071339;28;20027;-73
2023/02/03 13:04:58;;;;;;;18.15;9.20;;;1.90;99.90;;;;;;5073164;28;20524;-73
2023/02/03 13:07:35;;;;;;;12.32;8.75;;;1.90;99.90;;;;;;5071671;28;20025;-73
2023/02/03 13:10:26;;;;;;;20.52;11.75;;;1.80;99.90;;;;;;5071995;28;20083;-73
2023/02/03 13:12:56;;;;;;;35.50;18.63;;;1.90;99.90;;;;;;5057342;28;20032;-73
2023/02/03 13:15:42;;;;;;;29.88;18.77;;;1.90;99.90;;;;;;5072833;28;20034;-73
2023/02/03 13:18:28;;;;;;;25.95;15.27;;;1.90;99.90;;;;;;5071272;28;20455;-73
2023/02/03 13:20:54;;;;;;;15.68;9.65;;;2.00;99.90;;;;;;5072616;28;20021;-74
2023/02/03 13:23:20;;;;;;;;;;;2.00;99.90;;;;;;5073118;28;20032;-73
2023/02/03 13:26:06;;;;;;;13.32;8.80;;;2.00;99.90;;;;;;5071293;28;19916;-72
2023/02/03 13:28:31;;;;;;;12.65;8.88;;;1.90;99.90;;;;;;5072604;28;20082;-73
2023/02/03 13:31:16;;;;;;;;;;;1.90;99.90;;;;;;5072805;28;20024;-72
2023/02/03 13:34:12;;;;;;;91.07;47.85;;;1.90;99.90;;;;;;5072087;28;19919;-73